sensor_id;sensor_type;location;lat;lon;timestamp;P1;durP1;ratioP1;P2;durP2;ratioP2
76640;SDS011;65538;50.798;6.064;2023-03-03T00:00:35;31.97;;;16.03;;
76640;SDS011;65538;50.798;6.064;2023-03-03T00:03:01;34.67;;;15.70;;
76640;SDS011;65538;50.798;6.064;2023-03-03T00:05:29;38.67;;;17.15;;
76640;SDS011;65538;50.798;6.064;2023-03-03T00:07:55;35.50;;;16.10;;
76640;SDS011;65538;50.798;6.064;2023-03-03T00:10:20;35.37;;;16.30;;
76640;SDS011;65538;50.798;6.064;2023-03-03T00:12:47;37.17;;;16.93;;
76640;SDS011;65538;50.798;6.064;2023-03-03T00:15:30;31.70;;;15.07;;
76640;SDS011;65538;50.798;6.064;2023-03-03T00:17:55;34.33;;;15.50;;
76640;SDS011;65538;50.798;6.064;2023-03-03T00:22:50;32.05;;;15.05;;
76640;SDS011;65538;50.798;6.064;2023-03-03T00:27:43;32.22;;;15.48;;
76640;SDS011;65538;50.798;6.064;2023-03-03T00:33:06;34.15;;;14.48;;
76640;SDS011;65538;50.798;6.064;2023-03-03T00:35:38;31.58;;;15.38;;
76640;SDS011;65538;50.798;6.064;2023-03-03T00:38:09;35.08;;;14.82;;
76640;SDS011;65538;50.798;6.064;2023-03-03T00:40:37;32.85;;;14.98;;
76640;SDS011;65538;50.798;6.064;2023-03-03T00:45:50;31.63;;;14.63;;
76640;SDS011;65538;50.798;6.064;2023-03-03T00:50:57;31.75;;;14.57;;
76640;SDS011;65538;50.798;6.064;2023-03-03T00:53:24;31.33;;;14.10;;
76640;SDS011;65538;50.798;6.064;2023-03-03T00:55:50;28.20;;;13.43;;
76640;SDS011;65538;50.798;6.064;2023-03-03T00:58:15;32.20;;;14.15;;
76640;SDS011;65538;50.798;6.064;2023-03-03T01:00:41;32.33;;;15.35;;
76640;SDS011;65538;50.798;6.064;2023-03-03T01:03:16;32.55;;;14.82;;
76640;SDS011;65538;50.798;6.064;2023-03-03T01:05:42;34.80;;;15.15;;
76640;SDS011;65538;50.798;6.064;2023-03-03T01:08:07;36.97;;;15.80;;
76640;SDS011;65538;50.798;6.064;2023-03-03T01:10:34;38.17;;;16.93;;
76640;SDS011;65538;50.798;6.064;2023-03-03T01:12:59;37.42;;;16.88;;
76640;SDS011;65538;50.798;6.064;2023-03-03T01:15:25;38.93;;;17.17;;
76640;SDS011;65538;50.798;6.064;2023-03-03T01:17:50;39.57;;;16.73;;
76640;SDS011;65538;50.798;6.064;2023-03-03T01:20:16;44.13;;;18.80;;
76640;SDS011;65538;50.798;6.064;2023-03-03T01:22:41;35.53;;;14.90;;
76640;SDS011;65538;50.798;6.064;2023-03-03T01:25:06;33.87;;;13.13;;
76640;SDS011;65538;50.798;6.064;2023-03-03T01:27:33;35.40;;;15.57;;
76640;SDS011;65538;50.798;6.064;2023-03-03T01:29:58;32.00;;;15.32;;
76640;SDS011;65538;50.798;6.064;2023-03-03T01:32:24;41.97;;;13.87;;
76640;SDS011;65538;50.798;6.064;2023-03-03T01:34:49;32.33;;;15.43;;
76640;SDS011;65538;50.798;6.064;2023-03-03T01:37:14;31.23;;;14.03;;
76640;SDS011;65538;50.798;6.064;2023-03-03T01:39:39;30.87;;;14.83;;
76640;SDS011;65538;50.798;6.064;2023-03-03T01:42:05;31.60;;;13.20;;
76640;SDS011;65538;50.798;6.064;2023-03-03T01:44:30;30.48;;;14.18;;
76640;SDS011;65538;50.798;6.064;2023-03-03T01:49:38;30.67;;;14.60;;
76640;SDS011;65538;50.798;6.064;2023-03-03T01:52:24;31.85;;;15.45;;
76640;SDS011;65538;50.798;6.064;2023-03-03T01:54:53;29.88;;;14.68;;
76640;SDS011;65538;50.798;6.064;2023-03-03T01:57:21;32.08;;;14.90;;
76640;SDS011;65538;50.798;6.064;2023-03-03T01:59:48;43.08;;;18.20;;
76640;SDS011;65538;50.798;6.064;2023-03-03T02:02:13;44.00;;;18.05;;
76640;SDS011;65538;50.798;6.064;2023-03-03T02:04:39;49.50;;;21.33;;
76640;SDS011;65538;50.798;6.064;2023-03-03T02:07:05;54.57;;;22.10;;
76640;SDS011;65538;50.798;6.064;2023-03-03T02:12:00;65.85;;;26.15;;
76640;SDS011;65538;50.798;6.064;2023-03-03T02:14:26;68.75;;;26.13;;
76640;SDS011;65538;50.798;6.064;2023-03-03T02:16:51;66.43;;;26.00;;
76640;SDS011;65538;50.798;6.064;2023-03-03T02:21:54;65.82;;;26.58;;
76640;SDS011;65538;50.798;6.064;2023-03-03T02:27:02;65.13;;;27.30;;
76640;SDS011;65538;50.798;6.064;2023-03-03T02:29:28;69.27;;;26.27;;
76640;SDS011;65538;50.798;6.064;2023-03-03T02:31:53;74.50;;;28.67;;
76640;SDS011;65538;50.798;6.064;2023-03-03T02:34:18;64.63;;;25.37;;
76640;SDS011;65538;50.798;6.064;2023-03-03T02:36:43;70.07;;;26.73;;
76640;SDS011;65538;50.798;6.064;2023-03-03T02:41:53;67.10;;;27.25;;
76640;SDS011;65538;50.798;6.064;2023-03-03T02:44:22;69.78;;;25.95;;
76640;SDS011;65538;50.798;6.064;2023-03-03T02:46:49;67.03;;;22.88;;
76640;SDS011;65538;50.798;6.064;2023-03-03T02:49:15;69.03;;;26.52;;
76640;SDS011;65538;50.798;6.064;2023-03-03T02:51:41;65.13;;;24.77;;
76640;SDS011;65538;50.798;6.064;2023-03-03T02:54:07;75.70;;;28.05;;
76640;SDS011;65538;50.798;6.064;2023-03-03T02:56:32;79.50;;;27.42;;
76640;SDS011;65538;50.798;6.064;2023-03-03T02:58:58;71.23;;;25.60;;
76640;SDS011;65538;50.798;6.064;2023-03-03T03:01:23;72.95;;;27.50;;
76640;SDS011;65538;50.798;6.064;2023-03-03T03:03:48;76.50;;;27.20;;
76640;SDS011;65538;50.798;6.064;2023-03-03T03:06:14;69.50;;;25.70;;
76640;SDS011;65538;50.798;6.064;2023-03-03T03:08:39;73.87;;;25.23;;
76640;SDS011;65538;50.798;6.064;2023-03-03T03:11:04;73.60;;;26.97;;
76640;SDS011;65538;50.798;6.064;2023-03-03T03:13:30;72.20;;;26.90;;
76640;SDS011;65538;50.798;6.064;2023-03-03T03:15:55;80.22;;;27.20;;
76640;SDS011;65538;50.798;6.064;2023-03-03T03:18:21;79.93;;;29.43;;
76640;SDS011;65538;50.798;6.064;2023-03-03T03:20:46;85.10;;;30.15;;
76640;SDS011;65538;50.798;6.064;2023-03-03T03:23:11;80.07;;;28.23;;
76640;SDS011;65538;50.798;6.064;2023-03-03T03:25:37;84.87;;;28.33;;
76640;SDS011;65538;50.798;6.064;2023-03-03T03:28:09;84.15;;;30.80;;
76640;SDS011;65538;50.798;6.064;2023-03-03T03:30:35;81.87;;;29.60;;
76640;SDS011;65538;50.798;6.064;2023-03-03T03:33:00;87.22;;;27.65;;
76640;SDS011;65538;50.798;6.064;2023-03-03T03:35:25;107.03;;;36.73;;
76640;SDS011;65538;50.798;6.064;2023-03-03T03:37:50;95.03;;;33.17;;
76640;SDS011;65538;50.798;6.064;2023-03-03T03:40:15;106.63;;;32.30;;
76640;SDS011;65538;50.798;6.064;2023-03-03T03:42:41;109.40;;;35.53;;
76640;SDS011;65538;50.798;6.064;2023-03-03T03:45:06;99.80;;;33.03;;
76640;SDS011;65538;50.798;6.064;2023-03-03T03:47:31;100.10;;;32.65;;
76640;SDS011;65538;50.798;6.064;2023-03-03T03:49:57;103.77;;;33.30;;
76640;SDS011;65538;50.798;6.064;2023-03-03T03:52:22;107.90;;;35.23;;
76640;SDS011;65538;50.798;6.064;2023-03-03T03:54:47;106.67;;;33.67;;
76640;SDS011;65538;50.798;6.064;2023-03-03T03:57:12;121.03;;;37.47;;
76640;SDS011;65538;50.798;6.064;2023-03-03T03:59:38;112.50;;;34.50;;
76640;SDS011;65538;50.798;6.064;2023-03-03T04:02:03;106.37;;;34.13;;
76640;SDS011;65538;50.798;6.064;2023-03-03T04:04:28;98.97;;;33.03;;
76640;SDS011;65538;50.798;6.064;2023-03-03T04:06:54;124.87;;;38.73;;
76640;SDS011;65538;50.798;6.064;2023-03-03T04:09:19;108.97;;;34.03;;
76640;SDS011;65538;50.798;6.064;2023-03-03T04:11:45;111.40;;;34.10;;
76640;SDS011;65538;50.798;6.064;2023-03-03T04:14:10;123.53;;;38.87;;
76640;SDS011;65538;50.798;6.064;2023-03-03T04:16:35;121.10;;;36.80;;
76640;SDS011;65538;50.798;6.064;2023-03-03T04:19:01;112.27;;;36.23;;
76640;SDS011;65538;50.798;6.064;2023-03-03T04:21:26;116.47;;;36.20;;
76640;SDS011;65538;50.798;6.064;2023-03-03T04:23:52;124.95;;;39.83;;
76640;SDS011;65538;50.798;6.064;2023-03-03T04:26:17;131.73;;;39.83;;
76640;SDS011;65538;50.798;6.064;2023-03-03T04:28:43;131.00;;;41.20;;
76640;SDS011;65538;50.798;6.064;2023-03-03T04:31:08;117.45;;;36.05;;
76640;SDS011;65538;50.798;6.064;2023-03-03T04:33:33;123.23;;;37.33;;
76640;SDS011;65538;50.798;6.064;2023-03-03T04:35:59;124.90;;;38.43;;
76640;SDS011;65538;50.798;6.064;2023-03-03T04:38:24;135.23;;;37.63;;
76640;SDS011;65538;50.798;6.064;2023-03-03T04:40:50;132.10;;;40.70;;
76640;SDS011;65538;50.798;6.064;2023-03-03T04:43:15;125.47;;;37.63;;
76640;SDS011;65538;50.798;6.064;2023-03-03T04:45:40;136.55;;;42.50;;
76640;SDS011;65538;50.798;6.064;2023-03-03T04:48:06;134.98;;;40.20;;
76640;SDS011;65538;50.798;6.064;2023-03-03T04:50:31;123.33;;;36.43;;
76640;SDS011;65538;50.798;6.064;2023-03-03T04:52:57;118.23;;;36.07;;
76640;SDS011;65538;50.798;6.064;2023-03-03T04:55:22;135.70;;;40.67;;
76640;SDS011;65538;50.798;6.064;2023-03-03T04:57:47;146.87;;;43.27;;
76640;SDS011;65538;50.798;6.064;2023-03-03T05:00:12;144.07;;;41.73;;
76640;SDS011;65538;50.798;6.064;2023-03-03T05:02:38;151.15;;;43.47;;
76640;SDS011;65538;50.798;6.064;2023-03-03T05:05:04;155.63;;;43.03;;
76640;SDS011;65538;50.798;6.064;2023-03-03T05:07:29;157.55;;;43.67;;
76640;SDS011;65538;50.798;6.064;2023-03-03T05:09:54;157.03;;;48.10;;
76640;SDS011;65538;50.798;6.064;2023-03-03T05:12:19;150.37;;;43.83;;
76640;SDS011;65538;50.798;6.064;2023-03-03T05:14:45;146.13;;;40.13;;
76640;SDS011;65538;50.798;6.064;2023-03-03T05:17:10;141.13;;;38.70;;
76640;SDS011;65538;50.798;6.064;2023-03-03T05:19:35;135.73;;;37.20;;
76640;SDS011;65538;50.798;6.064;2023-03-03T05:22:00;133.80;;;38.83;;
76640;SDS011;65538;50.798;6.064;2023-03-03T05:24:26;139.17;;;38.77;;
76640;SDS011;65538;50.798;6.064;2023-03-03T05:26:51;148.50;;;40.05;;
76640;SDS011;65538;50.798;6.064;2023-03-03T05:29:17;147.38;;;41.20;;
76640;SDS011;65538;50.798;6.064;2023-03-03T05:31:42;153.40;;;41.37;;
76640;SDS011;65538;50.798;6.064;2023-03-03T05:34:07;141.87;;;39.33;;
76640;SDS011;65538;50.798;6.064;2023-03-03T05:36:32;128.87;;;37.17;;
76640;SDS011;65538;50.798;6.064;2023-03-03T05:38:58;132.97;;;41.60;;
76640;SDS011;65538;50.798;6.064;2023-03-03T05:41:23;135.93;;;38.13;;
76640;SDS011;65538;50.798;6.064;2023-03-03T05:43:48;126.83;;;36.33;;
76640;SDS011;65538;50.798;6.064;2023-03-03T05:46:13;124.90;;;36.63;;
76640;SDS011;65538;50.798;6.064;2023-03-03T05:48:38;144.27;;;42.20;;
76640;SDS011;65538;50.798;6.064;2023-03-03T05:51:04;144.50;;;42.87;;
76640;SDS011;65538;50.798;6.064;2023-03-03T05:53:29;122.37;;;36.93;;
76640;SDS011;65538;50.798;6.064;2023-03-03T05:55:54;122.63;;;39.20;;
76640;SDS011;65538;50.798;6.064;2023-03-03T05:58:19;126.27;;;39.93;;
76640;SDS011;65538;50.798;6.064;2023-03-03T06:00:45;134.00;;;40.20;;
76640;SDS011;65538;50.798;6.064;2023-03-03T06:03:10;139.63;;;39.70;;
76640;SDS011;65538;50.798;6.064;2023-03-03T06:05:35;121.13;;;36.07;;
76640;SDS011;65538;50.798;6.064;2023-03-03T06:08:00;107.77;;;32.87;;
76640;SDS011;65538;50.798;6.064;2023-03-03T06:10:26;104.27;;;33.07;;
76640;SDS011;65538;50.798;6.064;2023-03-03T06:12:51;111.57;;;34.63;;
76640;SDS011;65538;50.798;6.064;2023-03-03T06:15:17;126.47;;;38.45;;
76640;SDS011;65538;50.798;6.064;2023-03-03T06:17:42;112.83;;;35.57;;
76640;SDS011;65538;50.798;6.064;2023-03-03T06:20:08;109.03;;;36.87;;
76640;SDS011;65538;50.798;6.064;2023-03-03T06:22:33;118.55;;;35.67;;
76640;SDS011;65538;50.798;6.064;2023-03-03T06:24:58;114.43;;;32.90;;
76640;SDS011;65538;50.798;6.064;2023-03-03T06:27:24;114.43;;;36.03;;
76640;SDS011;65538;50.798;6.064;2023-03-03T06:29:49;121.63;;;36.57;;
76640;SDS011;65538;50.798;6.064;2023-03-03T06:32:14;108.47;;;34.17;;
76640;SDS011;65538;50.798;6.064;2023-03-03T06:34:39;121.90;;;38.07;;
76640;SDS011;65538;50.798;6.064;2023-03-03T06:37:05;113.90;;;32.53;;
76640;SDS011;65538;50.798;6.064;2023-03-03T06:39:30;115.90;;;34.58;;
76640;SDS011;65538;50.798;6.064;2023-03-03T06:41:55;125.00;;;36.17;;
76640;SDS011;65538;50.798;6.064;2023-03-03T06:44:20;123.80;;;37.73;;
76640;SDS011;65538;50.798;6.064;2023-03-03T06:46:46;107.40;;;35.20;;
76640;SDS011;65538;50.798;6.064;2023-03-03T06:49:11;119.10;;;36.03;;
76640;SDS011;65538;50.798;6.064;2023-03-03T06:51:37;114.47;;;35.43;;
76640;SDS011;65538;50.798;6.064;2023-03-03T06:54:13;117.88;;;36.13;;
76640;SDS011;65538;50.798;6.064;2023-03-03T06:56:39;111.55;;;34.05;;
76640;SDS011;65538;50.798;6.064;2023-03-03T06:59:26;104.13;;;33.25;;
76640;SDS011;65538;50.798;6.064;2023-03-03T07:01:51;108.10;;;33.42;;
76640;SDS011;65538;50.798;6.064;2023-03-03T07:06:44;104.60;;;33.45;;
76640;SDS011;65538;50.798;6.064;2023-03-03T07:09:20;104.33;;;31.20;;
76640;SDS011;65538;50.798;6.064;2023-03-03T07:11:46;109.72;;;34.30;;
76640;SDS011;65538;50.798;6.064;2023-03-03T07:14:15;107.33;;;32.90;;
76640;SDS011;65538;50.798;6.064;2023-03-03T07:16:40;103.53;;;31.23;;
76640;SDS011;65538;50.798;6.064;2023-03-03T07:19:08;109.73;;;32.80;;
76640;SDS011;65538;50.798;6.064;2023-03-03T07:21:38;107.88;;;32.80;;
76640;SDS011;65538;50.798;6.064;2023-03-03T07:24:12;110.70;;;33.33;;
76640;SDS011;65538;50.798;6.064;2023-03-03T07:26:40;110.53;;;35.45;;
76640;SDS011;65538;50.798;6.064;2023-03-03T07:31:40;103.97;;;29.13;;
76640;SDS011;65538;50.798;6.064;2023-03-03T07:37:15;91.35;;;29.33;;
76640;SDS011;65538;50.798;6.064;2023-03-03T07:39:42;101.95;;;33.67;;
76640;SDS011;65538;50.798;6.064;2023-03-03T07:44:51;114.40;;;34.10;;
76640;SDS011;65538;50.798;6.064;2023-03-03T07:47:19;110.13;;;32.67;;
76640;SDS011;65538;50.798;6.064;2023-03-03T07:49:47;107.03;;;34.42;;
76640;SDS011;65538;50.798;6.064;2023-03-03T07:54:54;111.72;;;35.42;;
76640;SDS011;65538;50.798;6.064;2023-03-03T07:57:24;109.25;;;36.53;;
76640;SDS011;65538;50.798;6.064;2023-03-03T07:59:52;105.95;;;33.35;;
76640;SDS011;65538;50.798;6.064;2023-03-03T08:02:27;123.22;;;35.60;;
76640;SDS011;65538;50.798;6.064;2023-03-03T08:04:53;106.25;;;34.10;;
76640;SDS011;65538;50.798;6.064;2023-03-03T08:07:19;103.03;;;31.20;;
76640;SDS011;65538;50.798;6.064;2023-03-03T08:09:49;114.20;;;34.17;;
76640;SDS011;65538;50.798;6.064;2023-03-03T08:14:46;120.22;;;39.78;;
76640;SDS011;65538;50.798;6.064;2023-03-03T08:17:22;112.87;;;35.43;;
76640;SDS011;65538;50.798;6.064;2023-03-03T08:19:51;115.32;;;36.17;;
76640;SDS011;65538;50.798;6.064;2023-03-03T08:22:17;104.65;;;32.10;;
76640;SDS011;65538;50.798;6.064;2023-03-03T08:24:43;107.72;;;33.28;;
76640;SDS011;65538;50.798;6.064;2023-03-03T08:27:09;107.83;;;34.03;;
76640;SDS011;65538;50.798;6.064;2023-03-03T08:29:34;95.57;;;31.10;;
76640;SDS011;65538;50.798;6.064;2023-03-03T08:31:59;113.37;;;34.67;;
76640;SDS011;65538;50.798;6.064;2023-03-03T08:34:24;106.90;;;32.53;;
76640;SDS011;65538;50.798;6.064;2023-03-03T08:36:49;106.67;;;33.57;;
76640;SDS011;65538;50.798;6.064;2023-03-03T08:39:15;105.80;;;31.10;;
76640;SDS011;65538;50.798;6.064;2023-03-03T08:41:40;112.00;;;34.60;;
76640;SDS011;65538;50.798;6.064;2023-03-03T08:44:07;106.60;;;32.80;;
76640;SDS011;65538;50.798;6.064;2023-03-03T08:46:33;114.40;;;36.30;;
76640;SDS011;65538;50.798;6.064;2023-03-03T08:48:58;114.73;;;32.20;;
76640;SDS011;65538;50.798;6.064;2023-03-03T08:51:23;117.57;;;34.87;;
76640;SDS011;65538;50.798;6.064;2023-03-03T08:53:50;111.95;;;33.28;;
76640;SDS011;65538;50.798;6.064;2023-03-03T08:56:15;106.40;;;33.03;;
76640;SDS011;65538;50.798;6.064;2023-03-03T08:58:40;108.20;;;34.67;;
76640;SDS011;65538;50.798;6.064;2023-03-03T09:01:11;108.03;;;35.20;;
76640;SDS011;65538;50.798;6.064;2023-03-03T09:03:37;110.13;;;34.17;;
76640;SDS011;65538;50.798;6.064;2023-03-03T09:06:02;121.93;;;35.30;;
76640;SDS011;65538;50.798;6.064;2023-03-03T09:08:28;114.60;;;34.47;;
76640;SDS011;65538;50.798;6.064;2023-03-03T09:10:53;93.87;;;29.70;;
76640;SDS011;65538;50.798;6.064;2023-03-03T09:13:18;98.43;;;31.70;;
76640;SDS011;65538;50.798;6.064;2023-03-03T09:15:44;93.72;;;28.95;;
76640;SDS011;65538;50.798;6.064;2023-03-03T09:18:12;95.27;;;30.47;;
76640;SDS011;65538;50.798;6.064;2023-03-03T09:20:50;97.03;;;31.20;;
76640;SDS011;65538;50.798;6.064;2023-03-03T09:25:44;94.63;;;28.90;;
76640;SDS011;65538;50.798;6.064;2023-03-03T09:28:27;101.15;;;31.67;;
76640;SDS011;65538;50.798;6.064;2023-03-03T09:30:53;82.80;;;28.73;;
76640;SDS011;65538;50.798;6.064;2023-03-03T09:35:53;101.72;;;32.30;;
76640;SDS011;65538;50.798;6.064;2023-03-03T09:38:26;98.22;;;30.73;;
76640;SDS011;65538;50.798;6.064;2023-03-03T09:41:00;97.13;;;30.95;;
76640;SDS011;65538;50.798;6.064;2023-03-03T09:48:45;105.72;;;33.33;;
76640;SDS011;65538;50.798;6.064;2023-03-03T09:51:17;98.20;;;31.02;;
76640;SDS011;65538;50.798;6.064;2023-03-03T09:53:59;103.13;;;33.80;;
76640;SDS011;65538;50.798;6.064;2023-03-03T09:56:29;97.15;;;31.02;;
76640;SDS011;65538;50.798;6.064;2023-03-03T09:59:19;101.78;;;31.70;;
76640;SDS011;65538;50.798;6.064;2023-03-03T10:01:54;100.80;;;31.23;;
76640;SDS011;65538;50.798;6.064;2023-03-03T10:12:26;101.55;;;32.13;;
76640;SDS011;65538;50.798;6.064;2023-03-03T10:14:56;97.43;;;31.08;;
76640;SDS011;65538;50.798;6.064;2023-03-03T10:22:54;92.57;;;31.48;;
76640;SDS011;65538;50.798;6.064;2023-03-03T10:33:23;97.32;;;31.95;;
76640;SDS011;65538;50.798;6.064;2023-03-03T10:36:11;88.63;;;28.75;;
76640;SDS011;65538;50.798;6.064;2023-03-03T10:41:13;90.33;;;31.50;;
76640;SDS011;65538;50.798;6.064;2023-03-03T10:43:41;88.65;;;31.02;;
76640;SDS011;65538;50.798;6.064;2023-03-03T10:46:21;96.20;;;32.05;;
76640;SDS011;65538;50.798;6.064;2023-03-03T10:54:29;97.95;;;28.80;;
76640;SDS011;65538;50.798;6.064;2023-03-03T10:57:02;95.53;;;30.50;;
76640;SDS011;65538;50.798;6.064;2023-03-03T11:05:12;87.78;;;29.88;;
76640;SDS011;65538;50.798;6.064;2023-03-03T11:07:41;87.60;;;29.13;;
76640;SDS011;65538;50.798;6.064;2023-03-03T11:13:12;95.35;;;27.55;;
76640;SDS011;65538;50.798;6.064;2023-03-03T11:18:24;91.78;;;29.50;;
76640;SDS011;65538;50.798;6.064;2023-03-03T11:21:08;89.78;;;26.70;;
76640;SDS011;65538;50.798;6.064;2023-03-03T11:36:11;90.10;;;30.08;;
76640;SDS011;65538;50.798;6.064;2023-03-03T11:38:47;95.82;;;29.60;;
76640;SDS011;65538;50.798;6.064;2023-03-03T11:43:53;100.22;;;29.67;;
76640;SDS011;65538;50.798;6.064;2023-03-03T11:46:31;94.13;;;31.70;;
76640;SDS011;65538;50.798;6.064;2023-03-03T11:49:05;105.32;;;32.40;;
76640;SDS011;65538;50.798;6.064;2023-03-03T11:54:00;102.43;;;32.50;;
76640;SDS011;65538;50.798;6.064;2023-03-03T11:56:47;104.00;;;32.03;;
76640;SDS011;65538;50.798;6.064;2023-03-03T12:05:00;87.65;;;30.52;;
76640;SDS011;65538;50.798;6.064;2023-03-03T12:07:27;99.22;;;32.85;;
76640;SDS011;65538;50.798;6.064;2023-03-03T12:12:33;99.22;;;30.65;;
76640;SDS011;65538;50.798;6.064;2023-03-03T12:15:03;101.82;;;30.23;;
76640;SDS011;65538;50.798;6.064;2023-03-03T12:22:34;92.37;;;29.70;;
76640;SDS011;65538;50.798;6.064;2023-03-03T12:40:45;98.47;;;30.42;;
76640;SDS011;65538;50.798;6.064;2023-03-03T12:43:34;95.78;;;30.55;;
76640;SDS011;65538;50.798;6.064;2023-03-03T12:48:39;93.90;;;30.60;;
76640;SDS011;65538;50.798;6.064;2023-03-03T12:56:07;95.60;;;33.30;;
76640;SDS011;65538;50.798;6.064;2023-03-03T13:04:07;102.55;;;32.30;;
76640;SDS011;65538;50.798;6.064;2023-03-03T13:06:41;99.50;;;31.77;;
76640;SDS011;65538;50.798;6.064;2023-03-03T13:09:22;99.45;;;30.40;;
76640;SDS011;65538;50.798;6.064;2023-03-03T13:17:22;88.18;;;27.85;;
76640;SDS011;65538;50.798;6.064;2023-03-03T13:20:32;90.25;;;28.88;;
76640;SDS011;65538;50.798;6.064;2023-03-03T13:22:38;98.05;;;29.23;;
76640;SDS011;65538;50.798;6.064;2023-03-03T13:25:16;96.30;;;29.08;;
76640;SDS011;65538;50.798;6.064;2023-03-03T13:27:44;93.32;;;30.95;;
76640;SDS011;65538;50.798;6.064;2023-03-03T13:30:14;92.65;;;30.15;;
76640;SDS011;65538;50.798;6.064;2023-03-03T13:32:45;88.35;;;28.55;;
76640;SDS011;65538;50.798;6.064;2023-03-03T13:37:44;103.20;;;32.50;;
76640;SDS011;65538;50.798;6.064;2023-03-03T13:40:18;102.15;;;33.42;;
76640;SDS011;65538;50.798;6.064;2023-03-03T13:42:49;101.30;;;33.58;;
76640;SDS011;65538;50.798;6.064;2023-03-03T13:47:47;106.32;;;37.95;;
76640;SDS011;65538;50.798;6.064;2023-03-03T13:50:19;112.03;;;34.90;;
76640;SDS011;65538;50.798;6.064;2023-03-03T13:55:32;110.18;;;34.35;;
76640;SDS011;65538;50.798;6.064;2023-03-03T13:58:03;99.65;;;34.70;;
76640;SDS011;65538;50.798;6.064;2023-03-03T14:00:37;102.72;;;34.90;;
76640;SDS011;65538;50.798;6.064;2023-03-03T14:03:20;101.90;;;34.35;;
76640;SDS011;65538;50.798;6.064;2023-03-03T14:05:52;102.55;;;35.60;;
76640;SDS011;65538;50.798;6.064;2023-03-03T14:08:43;100.93;;;33.88;;
76640;SDS011;65538;50.798;6.064;2023-03-03T14:11:18;104.13;;;33.13;;
76640;SDS011;65538;50.798;6.064;2023-03-03T14:13:53;89.53;;;29.38;;
76640;SDS011;65538;50.798;6.064;2023-03-03T14:18:57;92.38;;;31.17;;
76640;SDS011;65538;50.798;6.064;2023-03-03T14:21:28;93.60;;;32.88;;
76640;SDS011;65538;50.798;6.064;2023-03-03T14:24:37;83.55;;;30.33;;
76640;SDS011;65538;50.798;6.064;2023-03-03T14:26:44;93.20;;;31.63;;
76640;SDS011;65538;50.798;6.064;2023-03-03T14:29:15;96.35;;;35.05;;
76640;SDS011;65538;50.798;6.064;2023-03-03T14:31:43;84.78;;;27.23;;
76640;SDS011;65538;50.798;6.064;2023-03-03T14:36:35;98.27;;;30.37;;
76640;SDS011;65538;50.798;6.064;2023-03-03T14:39:01;86.78;;;28.92;;
76640;SDS011;65538;50.798;6.064;2023-03-03T14:41:39;92.22;;;33.00;;
76640;SDS011;65538;50.798;6.064;2023-03-03T14:44:25;93.80;;;31.80;;
76640;SDS011;65538;50.798;6.064;2023-03-03T14:47:02;90.75;;;30.73;;
76640;SDS011;65538;50.798;6.064;2023-03-03T14:49:30;93.63;;;35.20;;
76640;SDS011;65538;50.798;6.064;2023-03-03T14:54:38;82.38;;;26.88;;
76640;SDS011;65538;50.798;6.064;2023-03-03T14:57:11;81.35;;;29.52;;
76640;SDS011;65538;50.798;6.064;2023-03-03T14:59:36;79.95;;;27.83;;
76640;SDS011;65538;50.798;6.064;2023-03-03T15:04:40;79.90;;;27.65;;
76640;SDS011;65538;50.798;6.064;2023-03-03T15:09:47;75.57;;;27.58;;
76640;SDS011;65538;50.798;6.064;2023-03-03T15:14:43;78.38;;;26.92;;
76640;SDS011;65538;50.798;6.064;2023-03-03T15:19:57;70.70;;;24.38;;
76640;SDS011;65538;50.798;6.064;2023-03-03T15:24:56;60.40;;;22.37;;
76640;SDS011;65538;50.798;6.064;2023-03-03T15:27:25;68.22;;;25.42;;
76640;SDS011;65538;50.798;6.064;2023-03-03T15:29:54;70.07;;;24.20;;
76640;SDS011;65538;50.798;6.064;2023-03-03T15:32:28;67.53;;;22.30;;
76640;SDS011;65538;50.798;6.064;2023-03-03T15:40:27;53.80;;;19.90;;
76640;SDS011;65538;50.798;6.064;2023-03-03T15:52:55;45.38;;;16.30;;
76640;SDS011;65538;50.798;6.064;2023-03-03T15:55:28;51.38;;;19.15;;
76640;SDS011;65538;50.798;6.064;2023-03-03T16:03:12;53.92;;;18.05;;
76640;SDS011;65538;50.798;6.064;2023-03-03T16:05:48;50.80;;;17.40;;
76640;SDS011;65538;50.798;6.064;2023-03-03T16:08:18;40.58;;;14.55;;
76640;SDS011;65538;50.798;6.064;2023-03-03T16:24:22;47.33;;;15.38;;
76640;SDS011;65538;50.798;6.064;2023-03-03T16:26:53;42.30;;;14.75;;
76640;SDS011;65538;50.798;6.064;2023-03-03T16:29:26;40.55;;;13.40;;
76640;SDS011;65538;50.798;6.064;2023-03-03T16:32:04;38.92;;;14.15;;
76640;SDS011;65538;50.798;6.064;2023-03-03T16:37:01;37.85;;;13.88;;
76640;SDS011;65538;50.798;6.064;2023-03-03T16:41:59;40.00;;;13.68;;
76640;SDS011;65538;50.798;6.064;2023-03-03T16:49:44;43.47;;;14.35;;
76640;SDS011;65538;50.798;6.064;2023-03-03T16:52:13;38.78;;;13.70;;
76640;SDS011;65538;50.798;6.064;2023-03-03T16:54:45;37.55;;;13.63;;
76640;SDS011;65538;50.798;6.064;2023-03-03T16:59:49;37.20;;;13.50;;
76640;SDS011;65538;50.798;6.064;2023-03-03T17:04:50;48.97;;;13.53;;
76640;SDS011;65538;50.798;6.064;2023-03-03T17:12:49;43.78;;;14.93;;
76640;SDS011;65538;50.798;6.064;2023-03-03T17:17:46;50.00;;;19.13;;
76640;SDS011;65538;50.798;6.064;2023-03-03T17:25:29;44.30;;;16.25;;
76640;SDS011;65538;50.798;6.064;2023-03-03T17:33:18;42.20;;;15.00;;
76640;SDS011;65538;50.798;6.064;2023-03-03T17:40:43;47.13;;;16.27;;
76640;SDS011;65538;50.798;6.064;2023-03-03T17:43:20;55.42;;;18.70;;
76640;SDS011;65538;50.798;6.064;2023-03-03T17:45:58;50.88;;;16.30;;
76640;SDS011;65538;50.798;6.064;2023-03-03T17:48:38;47.60;;;14.85;;
76640;SDS011;65538;50.798;6.064;2023-03-03T17:51:12;45.55;;;16.17;;
76640;SDS011;65538;50.798;6.064;2023-03-03T18:06:52;40.42;;;14.38;;
76640;SDS011;65538;50.798;6.064;2023-03-03T18:14:38;46.83;;;15.70;;
76640;SDS011;65538;50.798;6.064;2023-03-03T18:22:31;47.63;;;15.90;;
76640;SDS011;65538;50.798;6.064;2023-03-03T18:35:27;59.92;;;18.95;;
76640;SDS011;65538;50.798;6.064;2023-03-03T18:37:54;44.58;;;16.35;;
76640;SDS011;65538;50.798;6.064;2023-03-03T18:40:26;48.90;;;16.30;;
76640;SDS011;65538;50.798;6.064;2023-03-03T18:42:55;51.63;;;15.35;;
76640;SDS011;65538;50.798;6.064;2023-03-03T18:50:29;50.13;;;15.30;;
76640;SDS011;65538;50.798;6.064;2023-03-03T18:55:49;58.15;;;18.50;;
76640;SDS011;65538;50.798;6.064;2023-03-03T19:00:44;54.17;;;17.80;;
76640;SDS011;65538;50.798;6.064;2023-03-03T19:03:55;56.47;;;18.35;;
76640;SDS011;65538;50.798;6.064;2023-03-03T19:05:55;48.58;;;17.95;;
76640;SDS011;65538;50.798;6.064;2023-03-03T19:08:41;51.38;;;17.40;;
76640;SDS011;65538;50.798;6.064;2023-03-03T19:11:26;54.90;;;18.50;;
76640;SDS011;65538;50.798;6.064;2023-03-03T19:14:08;47.85;;;17.08;;
76640;SDS011;65538;50.798;6.064;2023-03-03T19:16:36;52.08;;;18.02;;
76640;SDS011;65538;50.798;6.064;2023-03-03T19:19:07;57.75;;;18.02;;
76640;SDS011;65538;50.798;6.064;2023-03-03T19:21:35;43.83;;;16.88;;
76640;SDS011;65538;50.798;6.064;2023-03-03T19:24:01;46.63;;;17.70;;
76640;SDS011;65538;50.798;6.064;2023-03-03T19:45:02;59.47;;;20.83;;
76640;SDS011;65538;50.798;6.064;2023-03-03T19:50:45;53.83;;;18.48;;